»·PEaware :: N911CM LIME-EDNA

N911CM :: LIME-EDNA

FLIGHT INFORMATION

Flight Status: Arrived
Operator: Privately registered:
United States
More flights under this callsign
Pilot: Brett L. (11955)
Aircraft: BEECH AIRCRAFT SUPER KING AIR COMMUTER
(BE20)
More flights by this aircraft type
Origin: LIME Orio Al Serio
Italy
Destination: EDNA Ampfing-Waldkraiburg
Germany
More flights between these airports :: More routes between these airports
Route: DIRECT
File this flight plan on PilotEdge
Remarks: RW-Pilot / / Charts On Board / / P3D v3.3 / / FSEconomy
Altitude:
(Current/Filed)
19,000ft
Speed:
(Current/Filed)
270kts
Departed: 12-Jul-16 01:12 PM
Arrived: 12-Jul-16 01:57 PM
Distance/Time
Traveled:
191nm/0:45
Distance/Time
To Go:
Arrived

Flight Plot

Page will automatically refresh every two minutes.


Map Options




Map Legend


Flown Route
Filed Route
Departure Airport
Arrival Airport
Navaid (VOR, NDB)
Fix

Horizontal Profiles

Position Reports

Time Latitude Longitude Heading Altitude Ground
Speed
12-Jul-16 13:02 45.666120 9.702656 189 787ft 0kts
12-Jul-16 13:03 45.666120 9.702656 189 787ft 0kts
12-Jul-16 13:04 45.666095 9.702654 176 787ft 1kts
12-Jul-16 13:05 45.666258 9.704555 91 787ft 17kts
12-Jul-16 13:06 45.667593 9.708176 283 787ft 37kts
12-Jul-16 13:07 45.681315 9.668817 347 1586ft 147kts
12-Jul-16 13:08 45.709189 9.704864 52 3566ft 147kts
12-Jul-16 13:09 45.734135 9.754473 52 5359ft 163kts
12-Jul-16 13:10 45.767958 9.800303 37 7095ft 169kts
12-Jul-16 13:11 45.807782 9.841481 34 8815ft 179kts
12-Jul-16 13:12 45.850598 9.884089 33 10519ft 189kts
12-Jul-16 13:13 45.895626 9.928681 32 12182ft 196kts
12-Jul-16 13:14 45.939664 9.972281 31 13768ft 200kts
12-Jul-16 13:15 45.987986 10.020271 30 15334ft 212kts
12-Jul-16 13:16 46.038431 10.070552 29 16831ft 221kts
12-Jul-16 13:17 46.080324 10.112421 28 18058ft 218kts
12-Jul-16 13:18 46.140073 10.171966 29 19142ft 246kts
12-Jul-16 13:19 46.191227 10.223189 30 19084ft 286kts
12-Jul-16 13:20 46.256255 10.288820 31 19125ft 303kts
12-Jul-16 13:21 46.323294 10.356630 31 19133ft 310kts
12-Jul-16 13:22 46.399208 10.433576 31 19133ft 314kts
12-Jul-16 13:23 46.472644 10.508202 32 19129ft 315kts
12-Jul-16 13:24 46.544892 10.581836 32 19114ft 316kts
12-Jul-16 13:25 46.616987 10.655554 32 19121ft 316kts
12-Jul-16 13:26 46.688982 10.729404 33 19117ft 316kts
12-Jul-16 13:27 46.760846 10.803357 33 19085ft 317kts
12-Jul-16 13:28 46.832992 10.877855 33 19076ft 317kts
12-Jul-16 13:29 46.905065 10.952528 33 19067ft 317kts
12-Jul-16 13:30 46.977513 11.027824 33 19062ft 319kts
12-Jul-16 13:31 47.049610 11.103255 33 19068ft 317kts
12-Jul-16 13:32 47.121438 11.178414 33 19070ft 316kts
12-Jul-16 13:33 47.192827 11.253279 34 19076ft 316kts
12-Jul-16 13:34 47.264359 11.328637 34 19081ft 316kts
12-Jul-16 13:35 47.335954 11.404379 34 19082ft 316kts
12-Jul-16 13:36 47.407570 11.480284 34 19081ft 316kts
12-Jul-16 13:37 47.479222 11.556651 34 19079ft 317kts
12-Jul-16 13:38 47.550898 11.633175 34 19074ft 317kts
12-Jul-16 13:39 47.622120 11.709971 35 19072ft 317kts
12-Jul-16 13:40 47.693856 11.786893 35 19068ft 317kts
12-Jul-16 13:41 47.762456 11.860882 35 19029ft 257kts
12-Jul-16 13:42 47.820302 11.923450 36 16185ft 260kts
12-Jul-16 13:43 47.878081 11.986595 35 13189ft 252kts
12-Jul-16 13:44 47.932772 12.046278 34 10195ft 235kts
12-Jul-16 13:45 47.983909 12.102354 31 7186ft 220kts
12-Jul-16 13:46 48.035755 12.159337 34 5310ft 239kts
12-Jul-16 13:47 48.091175 12.220782 34 4246ft 249kts
12-Jul-16 13:48 48.144206 12.279407 34 3136ft 222kts
12-Jul-16 13:49 48.187242 12.327175 34 2902ft 140kts
12-Jul-16 13:50 48.223717 12.366296 28 3009ft 178kts
12-Jul-16 13:51 48.256840 12.391118 11 2092ft 106kts
12-Jul-16 13:52 48.262827 12.414010 98 1365ft 11kts
12-Jul-16 13:53 48.262838 12.415804 272 1365ft 0kts
12-Jul-16 13:54 48.262838 12.415804 272 1365ft 0kts
12-Jul-16 13:55 48.262838 12.415804 272 1365ft 0kts

Navigation Log

Ident Type
Flight plan parsing failed, navigation log unavailable